Latest Weather Observations for Marble Bar

IDW60801

Issued at 9:02 am WST Sunday 21 December 2014 (issued every 30 minutes, with the page automatically refreshed every 10 minutes)

About weather observations | Map of weather stations | Latest weather observations for WA | Other Formats
Station Details ID: 004106 Name: MARBLE BAR Lat: -21.18 Lon: 119.75 Height: 182.3 m
Data from the previous 72 hours. | See also: Recent months at Marble Bar
Date/Time
WST
Temp
°C
App
Temp
°C
Dew
Point
Rel
Hum
%
Delta-T
°C
Wind Press
QNH
hPa
Press
MSL
hPa
Rain
since 9 am
mm
Dir
 
Spd
km/h
Gust
km/h
Spd
kts
Gust
kts
21/09:00am 33.8 33.4 15.3 33 11.6 N 11 19 6 10 1009.7 1008.2 0.0
21/08:30am 32.8 33.0 15.8 36 10.7 N 9 13 5 7 1009.8 1008.3 0.0
21/08:00am 32.0 32.4 16.3 39 9.9 NNW 9 15 5 8 1009.8 1008.3 0.0
21/07:30am 31.1 31.8 17.0 42 9.0 NNW 9 15 5 8 1009.7 1008.2 0.0
21/07:00am 30.4 30.7 17.1 44 8.5 NNW 11 15 6 8 1009.6 1008.1 0.0
21/06:30am 29.5 31.3 19.5 55 6.6 N 9 15 5 8 1009.6 1008.1 0.0
21/06:00am 29.1 30.3 19.1 54 6.5 N 11 17 6 9 1009.2 1007.6 0.0
21/05:30am 28.3 30.2 19.0 57 6.0 N 7 9 4 5 1009.0 1007.4 0.0
21/05:00am 28.4 30.4 19.1 57 6.1 NNE 7 9 4 5 1008.6 1007.0 0.0
21/04:30am 28.6 31.1 19.0 56 6.2 N 4 6 2 3 1008.1 1006.5 0.0
21/04:00am 28.4 30.8 18.8 56 6.2 WNW 4 4 2 2 1007.9 1006.3 0.0
21/03:30am 28.4 31.0 18.5 55 6.4 WNW 2 4 1 2 1007.8 1006.2 0.0
21/03:00am 28.8 31.4 18.3 53 6.8 NNW 2 4 1 2 1008.1 1006.5 0.0
21/02:30am 28.8 30.5 18.0 52 6.9 NW 6 7 3 4 1008.3 1006.7 0.0
21/02:00am 29.0 30.3 17.5 49 7.3 N 7 9 4 5 1008.4 1006.8 0.0
21/01:30am 29.2 30.6 17.4 49 7.5 W 6 7 3 4 1008.5 1006.9 0.0
21/01:00am 29.4 30.6 16.9 47 7.9 W 6 7 3 4 1008.8 1007.2 0.0
21/12:30am 29.8 31.8 16.9 45 8.2 W 2 4 1 2 1009.5 1008.0 0.0
21/12:00am 30.1 32.1 17.9 48 7.9 WSW 4 9 2 5 1009.8 1008.3 0.0
 
Date/Time
WST
Temp
°C
App
Temp
°C
Dew
Point
Rel
Hum
%
Delta-T
°C
Wind Press
QNH
hPa
Press
MSL
hPa
Rain
since 9 am
mm
Dir
 
Spd
km/h
Gust
km/h
Spd
kts
Gust
kts
20/11:30pm 29.9 32.8 19.0 52 7.1 NW 2 4 1 2 1009.8 1008.3 0.0
20/11:00pm 30.0 32.1 19.4 53 7.0 WNW 7 13 4 7 1009.9 1008.4 0.0
20/10:30pm 30.2 31.1 19.3 52 7.2 NNW 13 20 7 11 1009.8 1008.3 0.0
20/10:00pm 30.7 30.7 19.7 52 7.3 N 19 26 10 14 1009.4 1007.9 0.0
20/09:30pm 31.0 30.3 19.4 50 7.6 N 22 32 12 17 1009.4 1007.9 0.0
20/09:00pm 31.4 30.1 19.1 48 8.1 NNW 24 33 13 18 1008.7 1007.1 0.0
20/08:30pm 31.8 31.1 19.4 47 8.2 N 22 33 12 18 1008.3 1006.7 0.0
20/08:00pm 31.2 30.5 20.2 52 7.3 N 24 39 13 21 1008.1 1006.5 0.0
20/07:30pm 31.0 29.2 20.3 53 7.1 N 30 39 16 21 1007.7 1006.1 0.0
20/07:00pm 31.5 29.6 20.1 50 7.6 NNE 30 43 16 23 1007.4 1005.8 0.0
20/06:30pm 36.3 31.6 15.9 29 13.0 N 35 46 19 25 1006.9 1005.3 0.0
20/06:25pm 36.5 32.3 16.1 29 13.0 N 33 46 18 25 1006.6 1005.0 0.0
20/06:00pm 36.3 36.1 18.4 35 11.8 NNE 17 30 9 16 1005.9 1004.4 0.0
20/05:30pm 40.4 36.9 14.6 22 16.4 NNW 26 41 14 22 1004.4 1002.9 0.0
20/05:25pm 40.6 38.3 14.0 21 16.8 NNW 19 41 10 22 1004.2 1002.6 0.0
20/05:00pm 41.1 40.4 12.1 18 17.9 N 7 13 4 7 1004.4 1002.9 0.0
20/04:30pm 41.5 39.9 11.5 17 18.3 NNE 11 20 6 11 1004.6 1003.1 0.0
20/04:00pm 42.3 40.9 12.1 17 18.7 N 11 19 6 10 1004.8 1003.3 0.0
20/03:30pm 42.2 41.7 12.1 17 18.6 NE 6 15 3 8 1005.0 1003.5 0.0
20/03:00pm 41.3 40.3 12.2 18 18.0 NE 9 17 5 9 1005.3 1003.8 0.0
20/02:30pm 42.1 41.3 12.9 18 18.2 NNE 9 22 5 12 1005.9 1004.4 0.0
20/02:00pm 40.4 38.7 12.3 19 17.3 NNE 13 24 7 13 1006.6 1005.0 0.0
20/01:30pm 41.6 40.3 12.5 18 18.0 NNE 11 20 6 11 1007.1 1005.5 0.0
20/01:00pm 40.6 38.9 12.5 19 17.4 NNW 13 20 7 11 1007.6 1006.0 0.0
20/12:30pm 40.8 39.9 12.6 19 17.4 NNW 9 17 5 9 1008.1 1006.5 0.0
20/12:00pm 38.5 38.1 13.0 22 15.8 N 7 19 4 10 1008.7 1007.1 0.0
20/11:30am 39.7 39.3 14.0 22 16.1 NE 9 20 5 11 1009.3 1007.8 0.0
20/11:00am 39.0 38.4 13.4 22 15.9 N 9 19 5 10 1009.7 1008.2 0.0
20/10:30am 38.0 37.3 13.3 23 15.3 NNW 9 24 5 13 1010.0 1008.5 0.0
20/10:00am 37.4 37.3 13.4 24 14.8 WNW 6 13 3 7 1010.5 1009.0 0.0
20/09:30am 36.8 36.0 11.6 22 15.1 ENE 7 15 4 8 1010.6 1009.1 0.0
20/09:00am 36.4 35.3 10.6 21 15.3 ESE 7 26 4 14 1011.1 1009.6 0.0
20/08:30am 35.2 33.4 9.6 21 14.8 E 9 15 5 8 1011.4 1009.9 0.0
20/08:00am 34.0 31.9 9.9 23 14.0 E 11 19 6 10 1011.5 1010.0 0.0
20/07:30am 33.8 32.0 11.0 25 13.4 SE 11 17 6 9 1011.3 1009.8 0.0
20/07:00am 32.2 31.9 11.4 28 12.2 SW 4 7 2 4 1010.9 1009.4 0.0
20/06:30am 31.1 31.3 12.0 31 11.3 SSW 2 4 1 2 1010.9 1009.4 0.0
20/06:00am 29.5 29.9 12.4 35 10.1 SE 2 4 1 2 1010.6 1009.1 0.0
20/05:30am 27.5 28.0 11.5 37 9.2 CALM 0 0 0 0 1010.2 1008.7 0.0
20/05:00am 27.8 27.9 11.4 36 9.5 SW 2 2 1 1 1010.1 1008.6 0.0
20/04:30am 28.1 28.0 10.8 34 9.9 SW 2 2 1 1 1010.0 1008.5 0.0
20/04:00am 28.2 27.6 10.4 33 10.1 SW 4 6 2 3 1010.1 1008.6 0.0
20/03:30am 28.2 27.6 10.4 33 10.1 SW 4 6 2 3 1010.2 1008.7 0.0
20/03:00am 28.3 27.6 10.0 32 10.4 WSW 4 6 2 3 1010.2 1008.7 0.0
20/02:30am 28.2 28.4 10.4 33 10.1 CALM 0 0 0 0 1010.3 1008.8 0.0
20/02:00am 28.8 27.9 10.5 32 10.5 W 6 7 3 4 1010.2 1008.7 0.0
20/01:30am 29.2 27.6 10.3 31 10.8 WSW 9 15 5 8 1010.3 1008.8 0.0
20/01:00am 29.5 28.0 9.1 28 11.4 W 7 15 4 8 1010.5 1009.0 0.0
20/12:30am 29.7 28.2 9.3 28 11.5 NW 7 11 4 6 1010.5 1009.0 0.0
20/12:00am 30.2 27.7 9.7 28 11.6 NW 13 22 7 12 1011.0 1009.5 0.0
 
Date/Time
WST
Temp
°C
App
Temp
°C
Dew
Point
Rel
Hum
%
Delta-T
°C
Wind Press
QNH
hPa
Press
MSL
hPa
Rain
since 9 am
mm
Dir
 
Spd
km/h
Gust
km/h
Spd
kts
Gust
kts
19/11:30pm 30.3 29.5 14.0 37 9.9 NW 11 15 6 8 1011.1 1009.6 0.0
19/11:00pm 30.4 29.8 14.5 38 9.7 NW 11 15 6 8 1011.2 1009.7 0.0
19/10:30pm 30.8 30.4 14.0 36 10.2 NW 9 15 5 8 1011.5 1010.0 0.0
19/10:00pm 31.1 30.5 14.7 37 10.1 NW 11 17 6 9 1011.5 1010.0 0.0
19/09:30pm 31.6 30.6 15.5 37 10.0 WNW 15 26 8 14 1011.3 1009.8 0.0
19/09:00pm 32.3 31.9 16.2 38 10.2 NW 13 20 7 11 1010.8 1009.3 0.0
19/08:30pm 33.2 32.2 15.7 35 11.0 NW 15 24 8 13 1010.4 1008.9 0.0
19/08:00pm 34.0 32.0 15.5 33 11.7 NW 20 32 11 17 1010.1 1008.6 0.0
19/07:30pm 34.6 33.0 16.0 33 11.8 NW 19 28 10 15 1009.8 1008.3 0.0
19/07:00pm 35.5 33.4 15.3 30 12.8 NW 20 32 11 17 1009.3 1007.8 0.0
19/06:30pm 36.5 33.6 15.0 27 13.5 NNW 24 35 13 19 1008.7 1007.1 0.0
19/06:00pm 37.7 34.1 14.3 25 14.7 NNW 26 39 14 21 1008.3 1006.7 0.0
19/05:30pm 39.4 36.0 13.7 21 16.1 NNW 24 35 13 19 1008.1 1006.5 0.0
19/05:00pm 40.3 37.4 13.0 20 17.0 N 20 37 11 20 1007.8 1006.2 0.0
19/04:30pm 40.5 38.0 12.4 19 17.3 NNW 17 28 9 15 1007.9 1006.3 0.0
19/04:00pm 41.1 39.8 13.7 20 17.2 N 13 32 7 17 1007.9 1006.3 0.0
19/03:30pm 40.6 38.8 13.3 20 17.0 N 15 30 8 16 1008.0 1006.4 0.0
19/03:00pm 41.4 39.8 13.9 20 17.4 N 15 26 8 14 1008.3 1006.7 0.0
19/02:30pm 40.5 38.9 13.9 21 16.7 N 15 22 8 12 1008.7 1007.1 0.0
19/02:00pm 40.2 38.5 13.7 21 16.6 NNW 15 24 8 13 1009.0 1007.4 0.0
19/01:30pm 40.3 38.4 13.0 20 16.9 NNW 15 33 8 18 1009.6 1008.1 0.0
19/01:00pm 40.0 38.0 12.8 20 16.8 NNW 15 30 8 16 1009.9 1008.4 0.0
19/12:30pm 39.0 37.0 12.7 21 16.2 N 15 24 8 13 1010.4 1008.9 0.0
19/12:00pm 38.9 37.1 13.3 22 15.9 N 15 22 8 12 1010.7 1009.2 0.0
19/11:30am 37.7 36.4 13.7 24 14.9 N 13 24 7 13 1011.2 1009.7 0.0
19/11:00am 37.1 35.5 13.8 25 14.5 N 15 26 8 14 1011.6 1010.1 0.0
19/10:30am 36.1 35.2 16.8 32 12.4 N 17 32 9 17 1012.2 1010.6 0.0
19/10:00am 35.4 36.1 18.9 37 10.9 N 13 22 7 12 1012.6 1011.0 0.0
19/09:30am 34.0 34.3 19.6 42 9.6 NNE 17 30 9 16 1012.5 1010.9 0.0
19/09:00am 32.5 34.2 20.1 48 8.3 NNE 11 20 6 11 1012.7 1011.1 0.0
19/08:30am 31.0 33.1 20.9 55 6.8 NNE 11 17 6 9 1012.8 1011.2 0.0
19/08:00am 30.4 32.6 21.2 58 6.2 N 11 19 6 10 1012.5 1010.9 0.0
19/07:30am 28.7 31.1 21.5 65 4.8 N 11 17 6 9 1012.1 1010.5 0.0
19/07:00am 27.6 30.8 21.6 70 4.0 NW 7 11 4 6 1011.5 1010.0 0.0
19/06:30am 26.9 30.8 22.5 77 3.0 NNW 6 9 3 5 1011.4 1009.9 0.0
19/06:00am 25.9 29.5 22.4 81 2.4 N 7 9 4 5 1010.7 1009.2 0.0
19/05:30am 25.3 28.9 22.4 84 2.0 N 7 13 4 7 1010.6 1009.1 0.0
19/05:00am 25.1 28.3 21.6 81 2.3 NNE 7 11 4 6 1009.9 1008.4 0.0
19/04:30am 25.4 28.1 21.3 78 2.7 N 9 11 5 6 1009.5 1008.0 0.0
19/04:00am 25.6 28.6 20.8 75 3.2 NNE 6 7 3 4 1009.4 1007.9 0.0
19/03:30am 25.9 28.7 20.5 72 3.6 N 6 9 3 5 1009.1 1007.5 0.0
19/03:00am 26.2 29.0 20.5 71 3.8 N 6 9 3 5 1009.1 1007.5 0.0
19/02:30am 26.4 28.9 19.8 67 4.3 NNW 6 7 3 4 1009.1 1007.5 0.0
19/02:00am 26.8 29.0 19.2 63 4.9 N 6 9 3 5 1009.7 1008.2 0.0
19/01:30am 27.2 29.3 19.0 61 5.3 NNW 6 9 3 5 1009.8 1008.3 0.0
19/01:00am 27.5 29.0 18.8 59 5.6 NNW 9 15 5 8 1009.9 1008.4 0.0
19/12:30am 27.6 29.3 19.4 61 5.3 NNW 9 13 5 7 1009.9 1008.4 0.0
19/12:00am 27.9 29.8 19.7 61 5.4 NW 9 13 5 7 1010.0 1008.5 0.0
 
Date/Time
WST
Temp
°C
App
Temp
°C
Dew
Point
Rel
Hum
%
Delta-T
°C
Wind Press
QNH
hPa
Press
MSL
hPa
Rain
since 9 am
mm
Dir
 
Spd
km/h
Gust
km/h
Spd
kts
Gust
kts
18/11:30pm 28.4 28.7 17.9 53 6.7 NW 13 19 7 10 1010.1 1008.6 0.0
18/11:00pm 29.0 29.0 17.2 49 7.5 NNW 13 17 7 9 1010.3 1008.8 0.0
18/10:30pm 29.5 28.5 15.6 43 8.6 NNW 15 22 8 12 1009.9 1008.4 0.0
18/10:00pm 30.2 28.3 15.1 40 9.3 NNW 19 28 10 15 1009.8 1008.3 0.0
18/09:30pm 30.5 29.9 17.6 46 8.3 NNW 17 22 9 12 1009.5 1008.0 0.0
18/09:00pm 31.2 29.2 15.6 39 9.8 NNW 20 28 11 15 1009.0 1007.4 0.0
18/08:30pm 32.0 30.4 15.9 38 10.1 NNW 19 26 10 14 1008.5 1006.9 0.0
18/08:00pm 32.9 30.9 15.4 35 11.0 NNW 20 30 11 16 1008.2 1006.6 0.0
18/07:30pm 33.7 31.2 15.2 33 11.6 NNW 22 33 12 18 1007.7 1006.1 0.0
18/07:00pm 34.7 32.2 15.1 31 12.3 NNW 22 33 12 18 1007.0 1005.4 0.0
18/06:30pm 35.7 32.9 15.4 29 12.8 NNW 24 33 13 18 1006.3 1004.7 0.0
18/06:00pm 37.0 34.0 14.9 27 14.0 NNW 24 35 13 19 1005.6 1004.1 0.0
18/05:30pm 38.6 36.0 15.0 24 15.0 NNW 22 35 12 19 1005.4 1003.9 0.0
18/05:00pm 40.2 37.8 13.7 21 16.6 NNW 19 32 10 17 1005.0 1003.5 0.0
18/04:30pm 40.8 38.1 11.8 18 17.7 NW 17 30 9 16 1005.0 1003.5 0.0
18/04:00pm 41.6 38.9 11.6 17 18.4 NW 17 24 9 13 1005.0 1003.5 0.0
18/03:30pm 41.6 39.0 10.7 16 18.7 N 15 28 8 15 1005.3 1003.8 0.0
18/03:00pm 41.7 39.0 11.7 17 18.4 N 17 30 9 16 1005.4 1003.9 0.0
18/02:30pm 40.9 38.9 12.7 19 17.5 N 15 26 8 14 1005.7 1004.2 0.0
18/02:00pm 40.4 38.5 13.1 20 17.0 NNW 15 35 8 19 1006.0 1004.5 0.0
18/01:30pm 40.5 38.3 13.2 20 17.0 N 17 30 9 16 1006.5 1004.9 0.0
18/01:00pm 39.6 38.0 13.9 22 16.1 NNW 15 24 8 13 1006.9 1005.3 0.0
18/12:30pm 38.7 37.5 15.1 24 15.0 N 15 28 8 15 1007.1 1005.5 0.0
18/12:00pm 37.7 36.2 14.3 25 14.7 N 15 24 8 13 1007.5 1005.9 0.0
18/11:30am 37.1 36.4 15.5 27 13.7 N 13 20 7 11 1007.8 1006.2 0.0
18/11:00am 35.6 34.9 15.3 29 12.8 NNW 13 24 7 13 1008.1 1006.5 0.0
18/10:30am 35.0 34.8 15.8 31 12.2 NNW 11 19 6 10 1008.3 1006.7 0.0
18/10:00am 33.9 33.7 16.7 35 11.0 NW 13 20 7 11 1008.7 1007.1 0.0
18/09:30am 32.6 33.2 17.6 40 9.7 NNW 11 20 6 11 1008.9 1007.3 0.0

Other Formats:

Comma delimited format used in spreadsheet applications
http://www.bom.gov.au/fwo/IDW60801/IDW60801.95317.axf

JavaScript Object Notation format (JSON) in row-major order
http://www.bom.gov.au/fwo/IDW60801/IDW60801.95317.json